メインページ
METAR-TAF:

METAR-TAF

空港 :

モスクワ-シェレメーチエヴォ, ロシア

シェレメーチエヴォ国際空港

緯度: 55-59N, 経度: 037-30E, 海抜: 190m

現時点の気象観測

当レポートは24分前の07:30(UTC)に作成
の風 10kt
気温 1°C
湿度 93%
気圧 1010 hPa
視程10km以上
高度2600ftの千切れ雲あり

METAR: UUEE 200730Z 19005MPS 9999 BKN026 01/M00 Q1010 R24R/190057 R24L/190057 NOSIG

時間: 10:54 (07:54 UTC)

予報

当レポートは3時間0分前の04:54(UTC)に作成
予報は20日の 06時(UTC)から 21日の 06時(UTC)まで有効
南西の風 10kt
視程10km以上
高度1500ftの千切れ雲あり
20日の 21時(UTC)から 20日の 23時(UTC)まで徐々に
の風 10kt

TAF: UUEE 200454Z 2006/2106 22005MPS 9999 BKN015 TX02/2012Z TNM00/2102Z BECMG 2021/2023 36005MPS

4,000以上の空港の気象観測と天気予報(METAR報とTAF報)

利用可能な観測所は地図上に黄色い丸と赤い丸で示す。

丸の上にカーソルを重ねると観測所名を参照できる。

次にクリックすると気象観測と天気予報を参照できる。

マップの切り替え:黒色「×」印の緑ボタンをクリックして拡大、「-」印の緑ボタンをクリックして縮小、緑色の三角印をクリックして隣りの地図に切り替え


METAR-TAF: